Time;durP1;ratioP1;P1;durP2;ratioP2;P2;SDS_P1;SDS_P2;PMS_P1;PMS_P2;Temp;Humidity;BMP_temperature;BMP_pressure;BME280_temperature;BME280_humidity;BME280_pressure;Samples;Min_cycle;Max_cycle;Signal;HPM_P1;HPM_P2
2024/01/13 00:08:53;;;;;;;0.60;0.30;;;;;;;16.36;50.54;102353.88;20926900;28;20048;-65
2024/01/13 00:18:54;;;;;;;0.50;0.50;;;;;;;16.35;50.31;102330.66;20911079;28;20048;-65
2024/01/13 00:28:56;;;;;;;0.30;0.30;;;;;;;16.30;50.57;102313.06;20925321;28;20170;-65
2024/01/13 00:38:58;;;;;;;0.32;0.20;;;;;;;16.31;50.62;102299.50;20925564;28;20170;-65
2024/01/13 00:49:00;;;;;;;0.30;0.25;;;;;;;16.30;50.31;102292.41;20923103;28;20049;-65
2024/01/13 00:59:02;;;;;;;0.38;0.38;;;;;;;16.27;50.22;102271.09;20917283;28;20056;-65
2024/01/13 01:09:06;;;;;;;0.10;0.10;;;;;;;16.25;50.27;102273.00;20903460;28;20052;-65
2024/01/13 01:19:08;;;;;;;0.35;0.30;;;;;;;16.28;50.32;102280.03;20906130;28;20128;-65
2024/01/13 01:29:10;;;;;;;1.17;0.30;;;;;;;16.26;50.32;102257.78;20906062;28;20052;-65
2024/01/13 01:39:11;;;;;;;0.20;0.20;;;;;;;16.26;50.15;102253.25;20915924;28;20084;-65
2024/01/13 01:49:14;;;;;;;0.50;0.50;;;;;;;16.24;50.19;102230.97;21004876;28;20152;-65
2024/01/13 01:59:16;;;;;;;0.52;0.30;;;;;;;16.25;50.10;102208.53;21001964;28;20086;-65
2024/01/13 02:09:18;;;;;;;0.47;0.30;;;;;;;16.24;50.19;102175.44;20983001;28;20097;-65
2024/01/13 02:19:20;;;;;;;0.43;0.20;;;;;;;16.22;49.98;102163.91;21025854;28;20051;-66
2024/01/13 02:29:22;;;;;;;0.10;0.10;;;;;;;16.22;50.04;102145.09;20985594;28;20126;-65
2024/01/13 02:39:24;;;;;;;0.50;0.22;;;;;;;16.22;50.11;102147.78;21025620;28;20060;-65
2024/01/13 02:49:26;;;;;;;0.20;0.20;;;;;;;16.23;50.11;102129.81;20944883;28;20048;-65
2024/01/13 02:59:28;;;;;;;0.13;0.10;;;;;;;16.18;49.88;102105.06;20927381;28;20060;-66
2024/01/13 03:09:29;;;;;;;0.20;0.20;;;;;;;16.18;50.19;102095.19;20944123;28;20457;-65
2024/01/13 03:19:31;;;;;;;0.47;0.20;;;;;;;16.19;50.19;102090.69;20942321;28;20048;-65
2024/01/13 03:29:33;;;;;;;0.57;0.30;;;;;;;16.23;49.86;102086.84;20937064;28;20111;-65
2024/01/13 03:39:35;;;;;;;0.35;0.30;;;;;;;16.26;49.86;102092.00;20927351;28;20057;-66
2024/01/13 03:49:36;;;;;;;0.20;0.20;;;;;;;16.19;50.04;102074.56;20916028;28;20413;-65
2024/01/13 03:59:38;;;;;;;0.13;0.13;;;;;;;16.19;49.97;102058.44;20944973;28;20075;-65
2024/01/13 04:09:40;;;;;;;0.52;0.20;;;;;;;16.20;49.67;102070.91;20949990;28;20070;-66
2024/01/13 04:19:42;;;;;;;0.30;0.20;;;;;;;16.17;49.74;102045.13;20954306;28;20130;-65
2024/01/13 04:29:44;;;;;;;0.20;0.20;;;;;;;16.16;49.79;102053.25;20946635;28;20060;-66
2024/01/13 04:39:45;;;;;;;0.30;0.25;;;;;;;16.16;49.92;102024.59;20922108;28;20075;-65
2024/01/13 04:49:47;;;;;;;0.30;0.30;;;;;;;16.19;49.81;102007.38;20921860;28;20055;-65
2024/01/13 04:59:49;;;;;;;0.20;0.10;;;;;;;16.15;49.88;101987.94;20932413;28;20048;-66
2024/01/13 05:09:51;;;;;;;0.20;0.20;;;;;;;16.13;50.06;102000.59;20932431;28;20086;-65
2024/01/13 05:19:53;;;;;;;0.25;0.25;;;;;;;16.18;49.60;102019.09;20921509;28;20086;-66
2024/01/13 05:29:54;;;;;;;0.20;0.20;;;;;;;16.19;49.62;102004.69;20929249;28;20048;-66
2024/01/13 05:39:58;;;;;;;0.38;0.20;;;;;;;16.16;49.75;101972.66;20925456;28;20052;-65
2024/01/13 05:50:00;;;;;;;0.20;0.20;;;;;;;16.14;49.53;101920.84;20989641;28;21593;-65
2024/01/13 06:00:03;;;;;;;0.22;0.22;;;;;;;16.13;49.78;101905.69;21026129;28;20059;-65
2024/01/13 06:10:08;;;;;;;0.63;0.20;;;;;;;16.18;49.48;101892.81;21016346;28;20048;-65
2024/01/13 06:20:10;;;;;;;0.20;0.20;;;;;;;16.13;49.57;101892.25;21008615;28;20768;-66
2024/01/13 06:30:12;;;;;;;0.20;0.17;;;;;;;16.14;49.68;101851.88;20999258;28;20591;-67
2024/01/13 06:40:15;;;;;;;0.20;0.20;;;;;;;16.12;49.82;101847.56;21015791;28;20086;-68
2024/01/13 06:50:17;;;;;;;0.10;0.10;;;;;;;16.11;49.58;101844.00;20980090;28;20052;-68
2024/01/13 07:00:19;;;;;;;0.25;0.20;;;;;;;16.14;49.62;101834.88;21022115;28;21667;-68
2024/01/13 07:10:21;;;;;;;0.22;0.10;;;;;;;16.11;49.69;101803.69;21012622;28;20060;-68
2024/01/13 07:20:23;;;;;;;0.10;0.10;;;;;;;16.13;49.66;101800.94;21030124;28;20048;-68
2024/01/13 07:30:25;;;;;;;0.17;0.17;;;;;;;16.14;49.76;101799.97;20991361;28;20051;-65
2024/01/13 07:40:27;;;;;;;0.10;0.03;;;;;;;16.15;49.44;101789.13;20976347;28;20415;-66
2024/01/13 07:50:29;;;;;;;0.20;0.20;;;;;;;16.15;49.59;101777.50;21015119;28;20052;-66
2024/01/13 08:00:30;;;;;;;0.10;0.10;;;;;;;16.14;49.64;101783.84;20982164;28;20101;-65
2024/01/13 08:10:35;;;;;;;0.10;0.10;;;;;;;16.18;49.40;101793.41;21014575;28;20043;-66
2024/01/13 08:20:38;;;;;;;0.50;0.15;;;;;;;16.19;49.72;101796.00;21016948;28;20143;-65
2024/01/13 08:30:40;;;;;;;0.00;0.00;;;;;;;16.15;49.79;101773.00;21016521;28;20076;-65
2024/01/13 08:40:44;;;;;;;0.10;0.10;;;;;;;16.18;49.72;101763.88;20999167;28;20464;-65
2024/01/13 08:50:45;;;;;;;0.10;0.10;;;;;;;16.19;49.47;101752.16;21016561;28;20055;-66
2024/01/13 09:00:47;;;;;;;0.38;0.22;;;;;;;16.16;49.39;101734.44;20986545;28;20048;-65
2024/01/13 09:10:50;;;;;;;0.30;0.30;;;;;;;16.26;49.61;101729.28;20988678;28;20436;-69
2024/01/13 09:20:53;;;;;;;0.63;0.50;;;;;;;16.73;48.74;101718.88;21013788;28;20519;-70
2024/01/13 09:30:55;;;;;;;0.75;0.75;;;;;;;17.04;48.22;101715.84;20984156;28;20127;-70
2024/01/13 09:40:57;;;;;;;1.50;1.00;;;;;;;16.89;47.52;101667.53;20964352;28;20079;-70
2024/01/13 09:51:00;;;;;;;2.45;1.58;;;;;;;17.37;47.24;101692.84;20997646;28;20052;-70
2024/01/13 10:01:02;;;;;;;2.08;1.70;;;;;;;17.47;46.99;101668.78;20985157;28;20044;-70
2024/01/13 10:11:04;;;;;;;3.58;2.28;;;;;;;17.51;46.76;101660.34;20969955;28;20051;-70
2024/01/13 10:21:06;;;;;;;3.20;2.45;;;;;;;17.53;46.53;101662.94;21032736;28;20051;-70
2024/01/13 10:31:08;;;;;;;2.80;2.35;;;;;;;17.61;46.51;101654.28;21018265;28;20070;-69
2024/01/13 10:41:21;;;;;;;5.15;2.38;;;;;;;17.46;46.78;101624.84;20976895;28;20059;-70
2024/01/13 10:51:36;;;;;;;3.40;2.70;;;;;;;17.69;46.68;101639.25;21032074;28;20062;-68
2024/01/13 11:01:39;;;;;;;3.67;3.20;;;;;;;17.73;46.85;101620.16;21006404;28;20121;-64
2024/01/13 11:11:59;;;;;;;3.72;2.90;;;;;;;17.74;46.65;101614.69;21023368;28;20054;-64
2024/01/13 11:22:33;;;;;;;4.03;3.60;;;;;;;17.68;46.73;101599.00;20990980;28;20047;-64
2024/01/13 11:32:41;;;;;;;3.33;2.75;;;;;;;17.71;46.57;101593.38;21017931;28;20101;-64
2024/01/13 11:42:43;;;;;;;3.35;2.92;;;;;;;17.72;46.47;101576.25;21030205;28;20117;-65
2024/01/13 11:52:45;;;;;;;3.42;2.88;;;;;;;17.75;46.51;101567.94;21000594;28;20507;-63
2024/01/13 12:02:47;;;;;;;3.60;3.05;;;;;;;17.75;46.40;101551.75;21015665;28;20459;-64
2024/01/13 12:12:49;;;;;;;4.63;3.40;;;;;;;17.76;46.33;101540.00;20943053;28;20519;-64
2024/01/13 12:22:51;;;;;;;3.45;2.63;;;;;;;17.81;46.37;101516.28;20942014;28;20040;-64
2024/01/13 12:32:54;;;;;;;3.72;2.83;;;;;;;17.79;46.29;101491.28;20940851;28;20080;-64
2024/01/13 12:42:56;;;;;;;4.90;2.72;;;;;;;17.79;46.23;101477.81;20940292;28;20044;-64
2024/01/13 12:52:58;;;;;;;3.85;3.10;;;;;;;17.78;46.24;101459.97;20923468;28;20052;-64
2024/01/13 13:02:59;;;;;;;3.70;2.97;;;;;;;17.76;46.44;101434.97;20922097;28;20099;-65
2024/01/13 13:13:04;;;;;;;2.85;2.53;;;;;;;17.74;46.49;101434.25;20921359;28;20079;-64
2024/01/13 13:23:07;;;;;;;3.80;2.47;;;;;;;17.72;46.50;101430.81;20935080;28;20135;-64
2024/01/13 13:33:10;;;;;;;2.70;2.50;;;;;;;17.69;46.56;101415.75;21003188;28;20051;-64
2024/01/13 13:43:12;;;;;;;3.35;2.13;;;;;;;17.68;46.63;101399.75;21044242;28;20050;-64
2024/01/13 13:53:14;;;;;;;2.80;1.98;;;;;;;17.72;46.56;101387.75;21064500;28;20048;-64
2024/01/13 14:03:15;;;;;;;2.10;1.90;;;;;;;17.75;46.36;101379.41;21029812;28;20118;-64
2024/01/13 14:13:17;;;;;;;3.47;1.85;;;;;;;17.75;46.55;101363.25;21030317;28;20048;-64
2024/01/13 14:23:19;;;;;;;2.95;2.30;;;;;;;17.73;46.54;101351.75;21028835;28;20051;-64
2024/01/13 14:33:21;;;;;;;1.83;1.70;;;;;;;17.71;46.48;101345.63;21028487;28;20051;-64
2024/01/13 14:43:23;;;;;;;2.00;1.50;;;;;;;17.73;46.53;101340.09;21045164;28;20511;-64
2024/01/13 14:53:24;;;;;;;2.42;1.60;;;;;;;17.71;46.65;101324.09;21005176;28;20049;-64
2024/01/13 15:03:26;;;;;;;1.38;1.25;;;;;;;17.72;46.68;101325.81;20964678;28;20439;-64
2024/01/13 15:13:28;;;;;;;1.30;1.20;;;;;;;17.71;46.71;101324.09;20947306;28;20052;-65
2024/01/13 15:23:30;;;;;;;1.60;1.33;;;;;;;17.66;46.81;101312.81;20986180;28;20052;-64
2024/01/13 15:33:32;;;;;;;1.77;1.30;;;;;;;17.64;47.06;101315.66;21028658;28;20073;-65
2024/01/13 15:43:34;;;;;;;1.35;0.98;;;;;;;17.63;47.04;101302.28;21046209;28;20093;-66
2024/01/13 15:53:35;;;;;;;1.35;1.10;;;;;;;17.62;46.98;101282.63;21027846;28;20048;-64
2024/01/13 16:03:38;;;;;;;2.13;1.00;;;;;;;17.62;47.22;101265.59;21044022;28;20062;-64
2024/01/13 16:13:55;;;;;;;1.58;1.00;;;;;;;17.61;47.27;101271.94;21004835;28;20044;-64
2024/01/13 16:23:58;;;;;;;1.58;0.70;;;;;;;17.61;47.53;101271.94;20996407;28;20553;-72
2024/01/13 16:34:00;;;;;;;1.85;0.93;;;;;;;17.51;48.56;101261.09;21014645;28;20101;-76
2024/01/13 16:44:03;;;;;;;0.80;0.80;;;;;;;17.38;49.71;101266.63;21015137;28;20048;-75
2024/01/13 16:54:05;;;;;;;1.70;1.00;;;;;;;17.29;51.51;101254.75;20990084;28;20063;-72
2024/01/13 17:04:07;;;;;;;3.97;1.13;;;;;;;17.34;55.66;101259.78;20977258;28;20071;-68
2024/01/13 17:14:09;;;;;;;2.15;0.80;;;;;;;17.25;57.16;101256.84;20970284;28;20059;-68
2024/01/13 17:24:11;;;;;;;2.20;0.80;;;;;;;17.20;57.53;101242.88;21003501;28;20051;-72
2024/01/13 17:34:13;;;;;;;2.90;0.90;;;;;;;17.17;57.50;101229.69;20991823;28;20051;-66
2024/01/13 17:44:15;;;;;;;1.38;0.82;;;;;;;17.19;57.63;101227.72;20973982;28;21078;-67
2024/01/13 17:54:17;;;;;;;2.38;0.82;;;;;;;17.17;57.22;101223.47;20974251;28;20048;-68
2024/01/13 18:04:20;;;;;;;1.52;0.60;;;;;;;17.18;57.28;101220.63;21011673;28;20400;-66
2024/01/13 18:14:22;;;;;;;3.13;0.70;;;;;;;17.21;56.78;101216.84;20997397;28;20041;-67
2024/01/13 18:24:24;;;;;;;2.58;0.60;;;;;;;17.56;56.16;101217.63;20971665;28;20496;-68
2024/01/13 18:34:25;;;;;;;3.50;0.80;;;;;;;17.69;55.75;101196.81;21002411;28;20055;-69
2024/01/13 18:44:28;;;;;;;1.50;0.73;;;;;;;17.61;55.47;101189.38;20986498;28;20793;-69
2024/01/13 18:54:30;;;;;;;1.50;0.65;;;;;;;17.64;55.51;101180.16;21009834;28;20047;-69
2024/01/13 19:04:32;;;;;;;1.58;0.70;;;;;;;17.60;55.09;101165.25;20986834;28;20323;-70
2024/01/13 19:14:35;;;;;;;2.35;0.80;;;;;;;17.57;54.79;101162.81;21012443;28;20105;-69
2024/01/13 19:24:36;;;;;;;1.67;0.70;;;;;;;17.50;54.45;101141.78;20996563;28;20186;-69
2024/01/13 19:34:39;;;;;;;0.77;0.60;;;;;;;17.44;54.17;101127.97;20966399;28;20158;-69
2024/01/13 19:44:41;;;;;;;1.45;0.60;;;;;;;17.41;54.21;101121.03;21012105;28;20051;-70
2024/01/13 19:54:44;;;;;;;1.70;0.80;;;;;;;17.38;53.92;101100.59;21020489;28;20055;-70
2024/01/13 20:04:46;;;;;;;5.03;2.00;;;;;;;17.29;54.67;101087.06;20996314;28;20052;-69
2024/01/13 20:14:48;;;;;;;4.75;1.70;;;;;;;17.30;54.09;101091.47;21029806;28;20420;-69
2024/01/13 20:24:50;;;;;;;4.30;2.13;;;;;;;17.20;53.67;101081.44;21016462;28;20510;-69
2024/01/13 20:34:52;;;;;;;4.68;1.52;;;;;;;17.11;53.47;101076.84;21038036;28;20479;-69
2024/01/13 20:44:54;;;;;;;3.03;1.60;;;;;;;17.04;53.24;101062.19;21027740;28;20123;-69
2024/01/13 20:54:56;;;;;;;4.20;1.75;;;;;;;16.98;53.12;101065.41;21025143;28;20121;-69
2024/01/13 21:04:57;;;;;;;4.05;1.58;;;;;;;16.84;57.43;101048.53;21027332;28;20531;-69
2024/01/13 21:14:59;;;;;;;3.45;1.50;;;;;;;16.85;57.06;101044.88;21031726;28;20059;-69
2024/01/13 21:25:01;;;;;;;2.92;1.42;;;;;;;16.92;56.72;101035.31;20994239;28;20562;-69
2024/01/13 21:35:06;;;;;;;3.10;1.42;;;;;;;16.92;56.42;101035.31;21000259;28;20470;-69
2024/01/13 21:45:11;;;;;;;2.53;1.30;;;;;;;16.88;56.09;101023.09;20995014;28;20044;-69
2024/01/13 21:55:12;;;;;;;2.80;1.33;;;;;;;16.91;55.49;101021.97;21004346;28;20052;-69
2024/01/13 22:05:14;;;;;;;4.43;1.80;;;;;;;16.88;55.01;101009.66;20973967;28;20128;-69
2024/01/13 22:15:16;;;;;;;2.88;1.00;;;;;;;16.84;54.75;100994.75;21009650;28;20048;-69
2024/01/13 22:25:18;;;;;;;1.88;0.93;;;;;;;16.81;54.28;100979.72;21000542;28;20515;-69
2024/01/13 22:35:20;;;;;;;1.98;0.95;;;;;;;16.80;54.10;100961.03;21028494;28;20062;-69
2024/01/13 22:45:22;;;;;;;2.15;0.77;;;;;;;16.79;53.54;100944.03;21029589;28;20051;-69
2024/01/13 22:55:24;;;;;;;1.77;0.88;;;;;;;16.82;53.25;100945.63;21013892;28;20133;-69
2024/01/13 23:05:25;;;;;;;1.10;0.57;;;;;;;16.80;53.08;100944.91;21015206;28;20150;-69
2024/01/13 23:15:27;;;;;;;0.95;0.50;;;;;;;16.81;52.72;100931.31;21002470;28;20044;-69
2024/01/13 23:25:29;;;;;;;1.65;0.80;;;;;;;16.79;52.31;100921.66;20997553;28;20408;-69
2024/01/13 23:35:31;;;;;;;1.35;0.70;;;;;;;16.63;52.35;100895.25;20999972;28;20453;-69
2024/01/13 23:45:33;;;;;;;1.67;0.70;;;;;;;16.74;52.11;100891.63;21020649;28;20109;-69
2024/01/13 23:55:35;;;;;;;2.33;0.90;;;;;;;16.72;51.92;100872.09;21029628;28;20036;-69
